Les résultats vous sont offerts par

Télécharger en pdf

La Madone - 8 km - Velars sur Ouche - 12/11/2017 - 182 classés / 192 inscrits
Place Nom Prénom Dossard Temps Ecart/1ier Catégorie Sexe Club
1  CHEVALIER  GREGOIRE 657 00:31:26   SE M  
2  VASSARD  FRANCOIS 635 00:31:34 + 00:00:08 M1 M  ASPTT DIJON ATHLETISME
3  ROLAND  JEREMY 623 00:33:22 + 00:01:56 SE M  AC CHENOVE
4  DILLENSEGER  CLEMENT 552 00:33:46 + 00:02:20 JU M  DIJON UC*
5  DE LASIMACKER  SALOMON 679 00:33:55 + 00:02:29 CA M  
6  LAVIER  MATTHIEU 584 00:34:01 + 00:02:35 SE M  NUITS COURSE A PIED
7  SEGARD  ELWAN 627 00:34:05 + 00:02:39 JU M  DIJON UC*
8  DI GIROLAMO  DOMINIQUE 551 00:34:42 + 00:03:16 SE M  DIJON SINGLETRACK
9  BELORGEY  JEAN FRANCOIS 505 00:35:04 + 00:03:38 M1 M  ASC JTECK
10  MASSUT  FLORIAN 597 00:35:13 + 00:03:47 SE M  VS TROUHANS
11  ALIBERT  JEAN PIERRE 641 00:35:29 + 00:04:03 M2 M  
12  TONOT  VICTOR 632 00:35:38 + 00:04:12 SE M  COUREURS SUR ROUTE COTE D OR
13  GEAY  CHRISTOPHE 564 00:35:42 + 00:04:16 M2 M  CHENOVE TRIATHLON
14  GIRARDOT  ADELAIDE 568 00:35:48 + 00:04:22 SE F  ADELAIDE GIRARDOT
15  BRULE  MAXIME 526 00:35:51 + 00:04:25 CA M  NICOLAS BRULE
16  VOUILLON  NOEMIE 638 00:36:03 + 00:04:37 SE F  ADOC
17  GATINES  GAEL 562 00:36:16 + 00:04:50 SE M  COUREURS SUR ROUTE COTE D OR
18  VILO  CHRISTOPHE 637 00:36:30 + 00:05:04 M1 M  
19  COLLARDOT  BENOIT 538 00:36:36 + 00:05:10 SE M  NUITS COURSE À PIED
20  FERREIRA  MATHIAS 684 00:36:49 + 00:05:23 CA M  
21  MOREAU  JOFFREY 604 00:36:49 + 00:05:23 JU M  
22  DIMITRIJEVIC  JORDAN 553 00:38:02 + 00:06:36 SE M  JORDAN DIMITRIJEVIC
23  FROSSARD  PHILIPPE 560 00:38:09 + 00:06:43 M1 M  
24  ROUSSEL  SEBASTIEN 694 00:39:09 + 00:07:43 SE M  
25  BRENIAUX  EMMANUEL 523 00:39:18 + 00:07:52 M2 M  
26  DINET  GILLES 554 00:40:09 + 00:08:43 M2 M  AJVN TRAIL
27  LAVAUX  MICHAEL 583 00:40:50 + 00:09:24 SE M  TERRE DE RENNING
28  MONNOT  GILBERT 603 00:40:54 + 00:09:28 M2 M  TSO
29  RIBEIRO  LOIC 619 00:41:01 + 00:09:35 SE M  
30  BEUTEAU MAIRET  DAMIEN 642 00:41:02 + 00:09:36 SE M  
31  PERRIN  MICHAEL 610 00:41:09 + 00:09:43 M1 M  
32  BONSANS  DAVID 511 00:41:26 + 00:10:00 M1 M  
33  LEGER  CORENTIN 683 00:41:34 + 00:10:08 CA M  
34  POZZOBON  ALAIN 668 00:41:37 + 00:10:11 M2 M  
35  BROIN  ROMAIN 647 00:41:38 + 00:10:12 M2 M  
36  COUTURIER  ROMAIN 544 00:42:05 + 00:10:39 SE M  
37  BORNEL  VERONIQUE 516 00:42:35 + 00:11:09 M2 F  AJVN
38  LACAILLE  CHRISTOPHE 675 00:42:41 + 00:11:15 M2 M  
39  LIODARTD  FREDERIC 674 00:42:46 + 00:11:20 SE M  
40  PASQUET  OLIVIER 658 00:42:50 + 00:11:24 M1 M  
41  HEITZMANN  SANDRA 678 00:42:59 + 00:11:33 SE F  
42  MASSON  NICOLAS 596 00:43:01 + 00:11:35 SE M  NICOLAS MASSON
43  RICHARD  TANGUY 621 00:43:03 + 00:11:37 CA M  TRIATHLON CLUB SEURROIS
44  BREUILLE  YANN 685 00:43:08 + 00:11:42 SE M  
45  BARON  OLIVIER 687 00:43:32 + 00:12:06 M1 M  
46  MASSON  DAVID 692 00:43:38 + 00:12:12 M1 M  
47  DESBREE  JEREMY 550 00:43:49 + 00:12:23 SE M  CHENOVE TRIATHLON CLUB
48  CHAMPAGNOL  ERIC 531 00:43:51 + 00:12:25 M1 M  
49  SAMSON  JEAN PHILIPPE 649 00:43:51 + 00:12:25 M1 M  TERRE DE RUNNING
50  LOPEZ  MARC 590 00:43:56 + 00:12:30 M1 M  DIJON TRIATHLON
51  LOISY  ALINE 588 00:44:06 + 00:12:40 SE F  CHENOVE TRIATHLON
52  GUMERY  YVES 572 00:44:16 + 00:12:50 M3 M  
53  HARSTRICH  LUC 574 00:44:19 + 00:12:53 M2 M  TEAM LEFFE
54  COADOU  ANDRE 536 00:44:20 + 00:12:54 M2 M  
55  BOURIANT  CLAIRE 522 00:44:29 + 00:13:03 M1 F  
56  BEUCHE  JEAN PHILIPPE 643 00:44:37 + 00:13:11 M2 M  ASPTT DIJON
57  ARBINET  LAUREEN 501 00:44:44 + 00:13:18 SE F  
58  LEROY  AURELIE 676 00:44:51 + 00:13:25 SE F  
59  LOPPINET  LAURENT 652 00:44:55 + 00:13:29 M1 M  ACS J TEKT
60  DELABY  ARNAUD 545 00:45:05 + 00:13:39 SE M  
61  LECURET  NICOLAS 648 00:45:07 + 00:13:41 M1 M  
62  CHAVENTON  VIRGINIE 534 00:45:53 + 00:14:27 SE F  TRIATHLON CLUB SEURROIS
63  SALIGNON  LAURE ALINE 626 00:45:58 + 00:14:32 SE F  
64  DELETTRE  MICHEL 681 00:45:58 + 00:14:32 M2 M  
65  MEURGEY  JEAN MARC 599 00:46:07 + 00:14:41 M3 M  
66  BUDEL  LAURENCE 686 00:46:13 + 00:14:47 SE F  
67  WONQUE  JULIE 671 00:46:18 + 00:14:52 ES F  
68  BROCHAIS  ELISE 667 00:46:18 + 00:14:52 JU F  
69  CACAUD  JEAN PHILIPPE 653 00:46:24 + 00:14:58 M1 M  
70  ROUSSEAU  SABRINA 677 00:46:59 + 00:15:33 SE F  DIVONNE RUNNING
71  JOIGNEAULT  CLAIRE 579 00:47:03 + 00:15:37 SE F  COUREURS SUR ROUTE COTE D OR
72  DERAIL  EMILIE 549 00:47:13 + 00:15:47 SE F  ACR DIJON
73  BORNEL  PERRINE 515 00:47:14 + 00:15:48 SE F  AJVN
74  GRANDPERRET  DIDIER 570 00:47:16 + 00:15:50 M2 M  TERRE DE RUNNING
75  GUERITAINE  LAURE 661 00:47:28 + 00:16:02 SE F  
76  SCHILLING  DIANE 697 00:47:30 + 00:16:04 SE F  
77  BLONDEAU  MAXIME 507 00:48:03 + 00:16:37 SE M  
78  ROUBOT  NATHALIE 625 00:48:11 + 00:16:45 M1 F  ASQ'O
79  DINET  JULIANE 555 00:48:11 + 00:16:45 CA F  AJVN TRAIL
80  BONNAVENTURE  JOSIANE 509 00:48:12 + 00:16:46 M1 F  
81  FARAG  MYLENE 664 00:48:52 + 00:17:26 SE F  
82  PILLON  ANGELINE 612 00:48:52 + 00:17:26 SE F  
83  CHAPUIS  MARIE 665 00:48:53 + 00:17:27 SE F  
84  TALUCIER  HENRI 629 00:49:05 + 00:17:39 SE M  
85  MICHAUT  GUY 669 00:49:11 + 00:17:45 M3 M  
86  COUETTE  DIDIER 542 00:49:50 + 00:18:24 M2 M  BARBU RUNNER
87  GUIGNARD  LAURENT 571 00:50:18 + 00:18:52 M1 M  
88  VANNIER  LUCIE 634 00:50:22 + 00:18:56 SE F  
89  TOURIGNY  JEAN LUC 633 00:50:26 + 00:19:00 M3 M  ASSOCIATION FRANCAISE DIABETIQUE DE L'AISNE 02
90  CUCIS  JEAN CLAUDE 650 00:50:27 + 00:19:01 M3 M  ACR
91  HENKY  PAILIN 575 00:50:29 + 00:19:03 SE F  FFCO
92  BOURGEOIS  XAVIER 521 00:50:40 + 00:19:14 SE M  RUN IN VITTEAUX PLUS VILLAGE DU MONDE
93  CESCUTTI  MARINE 530 00:50:41 + 00:19:15 SE F  MARINE CESCUTTI
94  LE MEUR  THIBAULT 585 00:50:42 + 00:19:16 SE M  THIBAULT LE MEUR
95  DELFERRIERE  EMILIE 548 00:50:49 + 00:19:23 SE F  
96  RAMIREZ  GAETAN 616 00:50:50 + 00:19:24 SE M  
97  ROUSSEAU  JOELLE 673 00:51:02 + 00:19:36 SE F  
98  CUCIS  LOLA 691 00:51:36 + 00:20:10 CA F  
99  BORDAT  BERTRAND 514 00:51:46 + 00:20:20 M1 M  
100  DELETTRE  ALEXANDRE 547 00:51:46 + 00:20:20 M1 M  
101  DELABY  CELINE 546 00:52:00 + 00:20:34 SE F  
102  GRILLOT  NICOLAS 644 00:52:28 + 00:21:02 SE M  ULTRA TRAIL DIJONNAIS
103  DINOT  OLIVIER 645 00:52:28 + 00:21:02 SE M  ULTRA TRAIL DIJONNAIS
104  HUMBLIN  ANNE LISE 576 00:52:29 + 00:21:03 SE F  KITEDOR GMCO
105  BROIN  NADINE 646 00:52:38 + 00:21:12 M1 F  
106  CHAVANCE  MANON 533 00:52:48 + 00:21:22 SE F  
107  NICOLAS  AUDE 606 00:52:59 + 00:21:33 SE F  ACV
108  MARTINET  JULIA 595 00:53:10 + 00:21:44 M1 F  
109  FRANCHI  EMMANUELLE 693 00:53:14 + 00:21:48 M1 F  
110  EVRARD  CECILE 557 00:53:16 + 00:21:50 SE F  AJVN
111  ARNOULD  FRANCINE 502 00:53:26 + 00:22:00 M1 F  
112  JASSIONES  NICOLAS 690 00:53:28 + 00:22:02 M1 M  
113  BONVALLET  CAROLINE 513 00:53:29 + 00:22:03 SE F  
114  PARISOT  AUDREY 609 00:53:30 + 00:22:04 SE F  
115  GOBET  AURELIE 651 00:53:41 + 00:22:15 SE F  
116  OTHENIN  FLORENCE 607 00:53:43 + 00:22:17 M2 F  FLORENCE OTHENIN
117  HANRIOT DUCHEMIN  MARIE ODILE 573 00:53:46 + 00:22:20 M2 F  MARIE ODILE HANRIOT DUCHEMIN
118  PLOYER  BENJAMIN 613 00:53:53 + 00:22:27 SE M  
119  COMTE  ISABELLE 540 00:53:53 + 00:22:27 SE F  
120  MILLOT REVEAU  NATHALIE 600 00:54:00 + 00:22:34 M2 F  
121  MAROT  VERONIQUE 594 00:54:02 + 00:22:36 M2 F  
122  FLECHEUX  CAROLE 559 00:54:03 + 00:22:37 SE F  FLECHEUX
123  PIEROT  ERIC 611 00:54:06 + 00:22:40 M3 M  
124  LODS  PERRINE 587 00:54:14 + 00:22:48 ES F  
125  LEROY (GILLMANN)  VIRGINIE 586 00:54:18 + 00:22:52 SE F  
126  THEVENAUT  FRANCINE 630 00:54:33 + 00:23:07 M1 F  
127  TALLENAYE  MYLENE 628 00:54:36 + 00:23:10 SE F  
128  COMMEAUX  ISABEL 539 00:54:36 + 00:23:10 M2 F  
129  GAUDILLIER  MELANIE 563 00:54:39 + 00:23:13 SE F  
130  KRUMM  LAURIE 581 00:54:55 + 00:23:29 SE F  
131  DUROVRAY  MURIEL 556 00:54:57 + 00:23:31 M1 F  
132  PAILLE  BLANDINE 608 00:55:14 + 00:23:48 SE F  BARBUS RUNNERS
133  FRANET  CLEMENCE 688 00:55:32 + 00:24:06 SE F  
134  RICHARD  SEVERINE 620 00:55:39 + 00:24:13 M1 F  
135  COMTET  EMMANUELLE 541 00:55:49 + 00:24:23 M1 F  
136  VALANDRO  MARYSE 655 00:55:51 + 00:24:25 M2 F  
137  BERNSTEIN  BRIGITTE 506 00:55:51 + 00:24:25 M2 F  
138  BERLANGA  AGNES 654 00:55:52 + 00:24:26 M1 F  
139  MAILLARD  SYLVIE 592 00:55:53 + 00:24:27 M2 F  
140  COADOU  CLEMENTINE 537 00:56:00 + 00:24:34 CA F  
141  KRUMM  GERARD 580 00:56:12 + 00:24:46 M2 M  
142  REPLUMARD  ALINE 618 00:56:19 + 00:24:53 M1 F  ES THAON*
143  BOULEY  BERNARD 518 00:56:31 + 00:25:05 M2 M  ESCARGOTS 21
144  BOULEY  EVELYNE 519 00:56:32 + 00:25:06 M2 F  
145  GERARD  STEPHANIE 566 00:56:33 + 00:25:07 SE F  
146  LOPEZ  CATHY 589 00:57:00 + 00:25:34 M1 F  DIJON TRIATHLON
147  BOUNEFIKHA  SALIMA 520 00:57:04 + 00:25:38 SE F  
148  DELETRE  ALICE 682 00:57:10 + 00:25:44 SE F  
149  BONSANS  STEPHANIE 512 00:57:13 + 00:25:47 M1 F  
150  BRETIN  MARIE 524 00:57:22 + 00:25:56 SE F  LES COUREUSES ET CIE
151  FAUCONET  FLORIAN 558 00:57:29 + 00:26:03 SE M  
152  MINE  GABRIELLE 601 00:57:30 + 00:26:04 SE F  GABRIELLE MINE
153  BONNAVENTURE  PIERRE 510 00:57:30 + 00:26:04 M2 M  
154  BARBE  HELENE 503 00:57:35 + 00:26:09 ES F  
155  MERCIER  CLOTILDE 598 00:57:35 + 00:26:09 ES F  
156  MONCHAUZOU  ALIX 602 00:57:36 + 00:26:10 SE F  
157  ISSARTEL  BLANDINE 577 00:57:56 + 00:26:30 SE F  
158  ISSARTEL  GUILLAUME 578 00:57:57 + 00:26:31 M1 M  CHENOVE TRIATHLON
159  WONQUE  VIRGINIE 670 00:58:05 + 00:26:39 M1 F  
160  NICOLAS  ANNE 605 00:58:06 + 00:26:40 M3 F  
161  GIBERT  VIOLAINE 567 00:58:14 + 00:26:48 SE F  
162  ROBIN  SOPHIE 622 00:58:18 + 00:26:52 M1 F  SOPHIE ROBIN
163  MACLE  BENEDICTE 591 00:58:39 + 00:27:13 SE F  BENEDICTE MACLE
164  FUENTES  CHARLOTTE 561 00:59:17 + 00:27:51 SE F  
165  ROUBOT  ANAIS 624 00:59:40 + 00:28:14 SE F  ASQ'O
166  VILLEROT  SANDRA 636 01:00:03 + 00:28:37 SE F  
167  MARMIER  LOIC 593 01:00:10 + 00:28:44 SE M  
168  LHUILLIER  NOEMIE 695 01:00:55 + 00:29:29 SE F  
169  BOICHUT  ANTOINE 696 01:00:55 + 00:29:29 SE M  
170  CHANTEREAUX  CLEMENT 532 01:01:03 + 00:29:37 SE M  
171  DECHAUME  AMANDINE 672 01:01:25 + 00:29:59 SE F  
172  GAYOT  SABINE 689 01:01:25 + 00:29:59 M1 F  
173  MORAVSKA  ESTELLE 660 01:01:35 + 00:30:09 SE F  
174  VIENNET  JEAN PIERRE 659 01:01:36 + 00:30:10 M2 M  ASLM
175  BAREL  PRISCILLE 504 01:02:07 + 00:30:41 M1 F  
176  PODECHARD  SOPHIE 614 01:03:24 + 00:31:58 SE F  
177  PRETET  CHRISTIAN 615 01:03:25 + 00:31:59 M3 M  
178  BURILLE  SARA 527 01:08:10 + 00:36:44 JU F  
179  RAMIREZ  GLWADYS 617 01:08:30 + 00:37:04 SE F  
180  CALANDRE  MELANIE 529 01:09:07 + 00:37:41 SE F  
181  CALANDRE  LAURE 528 01:09:08 + 00:37:42 SE F  
182  BOUVET  GREGOIRE 656 01:18:43 + 00:47:17 SE M  

Les résultats vous sont offerts par

Télécharger en pdf

 

 

 

 

 

 

 

 

 

 

 

 

 

 

 

 

 

 

 

 

 

 

 

chronometrage,chronométrage, sportif, chrono, course, course à pied, trail, trails, couse nature, puce, U-DAG, loto